createdAt,value
2024-05-09T00:26:23.679Z,11.20
2024-05-09T00:55:31.607Z,11.10
2024-05-09T01:24:35.687Z,10.60
2024-05-09T01:53:51.741Z,10.20
2024-05-09T02:27:48.502Z,9.60
2024-05-09T02:56:57.626Z,9.20
2024-05-09T03:26:06.545Z,8.80
2024-05-09T03:55:12.386Z,8.60
2024-05-09T04:24:25.816Z,10.60
2024-05-09T04:53:35.619Z,13.10
2024-05-09T05:27:34.614Z,11.50
2024-05-09T05:56:51.327Z,12.50
2024-05-09T06:26:01.615Z,13.80
2024-05-09T06:55:06.840Z,15.60
2024-05-09T07:24:14.479Z,16.00
2024-05-09T07:53:35.035Z,16.50
2024-05-09T08:27:16.862Z,16.70
2024-05-09T08:56:26.527Z,17.50
2024-05-09T09:25:35.688Z,18.60
2024-05-09T09:54:49.499Z,19.00
2024-05-09T10:23:58.912Z,20.40
2024-05-09T10:53:05.901Z,21.50
2024-05-09T11:27:11.646Z,21.00
2024-05-09T11:56:19.553Z,21.80
2024-05-09T12:25:23.447Z,22.70
2024-05-09T12:54:34.559Z,24.00
2024-05-09T13:23:44.505Z,22.50
2024-05-09T13:57:42.448Z,22.90
2024-05-09T14:26:45.978Z,22.60
2024-05-09T14:55:55.480Z,22.20
2024-05-09T15:24:58.904Z,22.70
2024-05-09T15:54:05.224Z,22.30
2024-05-09T16:23:14.454Z,22.80
2024-05-09T16:57:09.384Z,23.10
2024-05-09T17:26:18.530Z,23.80
2024-05-09T17:55:21.886Z,23.30
2024-05-09T18:24:31.493Z,20.90
2024-05-09T18:53:45.512Z,18.60
2024-05-09T19:27:42.752Z,17.20
2024-05-09T19:56:54.564Z,16.50
2024-05-09T20:26:05.475Z,15.60
2024-05-09T20:55:15.084Z,15.00
2024-05-09T21:24:36.526Z,14.50
2024-05-09T21:53:50.456Z,13.90
2024-05-09T22:23:02.573Z,13.30
2024-05-09T22:57:07.531Z,12.50
2024-05-09T23:26:16.482Z,12.10
2024-05-09T23:55:25.559Z,11.70
